Time;durP1;ratioP1;P1;durP2;ratioP2;P2;SDS_P1;SDS_P2;PMS_P1;PMS_P2;Temp;Humidity;BMP_temperature;BMP_pressure;BME280_temperature;BME280_humidity;BME280_pressure;Samples;Min_cycle;Max_cycle;Signal;HPM_P1;HPM_P2
2021/07/26 00:02:07;;;;;;;6.60;5.90;;;20.70;99.90;;;;;;5022056;28;20116;-44
2021/07/26 00:04:35;;;;;;;7.03;5.82;;;20.60;99.90;;;;;;5026323;28;20025;-43
2021/07/26 00:07:02;;;;;;;6.28;5.68;;;20.70;99.90;;;;;;5019577;28;20045;-42
2021/07/26 00:09:27;;;;;;;6.05;5.45;;;20.60;99.90;;;;;;5027489;28;20076;-43
2021/07/26 00:11:53;;;;;;;6.97;6.00;;;20.60;99.90;;;;;;5017680;28;20041;-45
2021/07/26 00:14:18;;;;;;;6.43;5.80;;;20.60;99.90;;;;;;5028212;28;20021;-40
2021/07/26 00:16:44;;;;;;;6.32;5.72;;;20.50;99.90;;;;;;5017880;28;20029;-41
2021/07/26 00:19:10;;;;;;;6.72;6.03;;;20.50;99.90;;;;;;5029646;28;20018;-43
2021/07/26 00:21:35;;;;;;;6.40;5.80;;;20.50;99.90;;;;;;5026125;28;20030;-45
2021/07/26 00:24:01;;;;;;;8.02;6.10;;;20.40;99.90;;;;;;5028899;28;20022;-44
2021/07/26 00:26:26;;;;;;;7.22;5.75;;;20.40;99.90;;;;;;5022411;28;20022;-38
2021/07/26 00:28:54;;;;;;;6.50;5.90;;;20.40;99.90;;;;;;5010476;28;20173;-44
2021/07/26 00:31:20;;;;;;;6.80;6.10;;;20.40;99.90;;;;;;5019084;28;20469;-42
2021/07/26 00:34:06;;;;;;;6.72;6.05;;;20.40;99.90;;;;;;5011711;28;20057;-44
2021/07/26 00:36:33;;;;;;;9.88;6.38;;;20.30;99.90;;;;;;5017835;28;20098;-43
2021/07/26 00:38:58;;;;;;;7.15;5.53;;;20.30;99.90;;;;;;5011449;28;20147;-43
2021/07/26 00:41:24;;;;;;;7.55;6.15;;;20.30;99.90;;;;;;5016333;28;20160;-45
2021/07/26 00:43:50;;;;;;;8.25;6.15;;;20.30;99.90;;;;;;5014829;28;20496;-44
2021/07/26 00:46:15;;;;;;;7.05;6.35;;;20.30;99.90;;;;;;5014105;28;20475;-44
2021/07/26 00:48:41;;;;;;;6.53;5.78;;;20.20;99.90;;;;;;5016529;28;20321;-42
2021/07/26 00:51:07;;;;;;;6.85;5.80;;;20.20;99.90;;;;;;5011716;28;20065;-43
2021/07/26 00:53:34;;;;;;;6.90;5.97;;;20.20;99.90;;;;;;5018569;28;20030;-42
2021/07/26 00:56:00;;;;;;;6.97;5.80;;;20.20;99.90;;;;;;5010621;28;20025;-44
2021/07/26 00:58:25;;;;;;;6.30;5.70;;;20.20;99.90;;;;;;5019837;28;20033;-42
2021/07/26 01:00:51;;;;;;;6.38;5.57;;;20.20;99.90;;;;;;5009646;28;20029;-39
2021/07/26 01:03:16;;;;;;;6.55;5.72;;;20.20;99.90;;;;;;5020475;28;20021;-45
2021/07/26 01:05:42;;;;;;;6.40;5.15;;;20.10;99.90;;;;;;5008507;28;20569;-45
2021/07/26 01:08:08;;;;;;;6.68;5.63;;;20.10;99.90;;;;;;5020949;28;20113;-42
2021/07/26 01:10:33;;;;;;;7.97;5.38;;;20.20;99.90;;;;;;5008391;28;20042;-44
2021/07/26 01:12:59;;;;;;;6.07;5.47;;;20.10;99.90;;;;;;5021092;28;20465;-42
2021/07/26 01:15:24;;;;;;;5.88;5.28;;;20.10;99.90;;;;;;5007936;28;20477;-42
2021/07/26 01:18:27;;;;;;;5.32;4.82;;;20.10;99.90;;;;;;5017922;28;20022;-44
2021/07/26 01:21:05;;;;;;;5.50;5.00;;;20.10;99.90;;;;;;4998994;28;20091;-42
2021/07/26 01:23:33;;;;;;;5.75;4.85;;;20.00;99.90;;;;;;5015744;28;20128;-43
2021/07/26 01:25:59;;;;;;;5.78;5.03;;;20.00;99.90;;;;;;5029307;28;20017;-44
2021/07/26 01:28:28;;;;;;;5.93;5.35;;;20.00;99.90;;;;;;5016332;28;20136;-43
2021/07/26 01:30:53;;;;;;;5.47;4.97;;;20.00;99.90;;;;;;5027777;28;20432;-41
2021/07/26 01:33:19;;;;;;;7.13;5.22;;;19.90;99.90;;;;;;5019934;28;20026;-43
2021/07/26 01:35:46;;;;;;;5.63;5.07;;;19.90;99.90;;;;;;5023328;28;20466;-40
2021/07/26 01:38:12;;;;;;;5.55;4.53;;;19.90;99.90;;;;;;5022064;28;20026;-43
2021/07/26 01:40:39;;;;;;;6.07;5.25;;;19.90;99.90;;;;;;5022065;28;20017;-43
2021/07/26 01:43:06;;;;;;;7.75;5.47;;;19.90;99.90;;;;;;5024267;28;20052;-40
2021/07/26 01:45:36;;;;;;;5.82;4.88;;;19.90;99.90;;;;;;5020434;28;20025;-45
2021/07/26 01:48:04;;;;;;;5.75;5.22;;;19.80;99.90;;;;;;5026570;28;20461;-44
2021/07/26 01:50:37;;;;;;;5.55;4.88;;;19.80;99.90;;;;;;5017461;28;20154;-44
2021/07/26 01:53:03;;;;;;;6.20;4.90;;;19.80;99.90;;;;;;5027159;28;20033;-44
2021/07/26 01:55:29;;;;;;;5.35;4.85;;;19.80;99.90;;;;;;5021082;28;20057;-43
2021/07/26 01:57:55;;;;;;;5.55;5.03;;;19.80;99.90;;;;;;5030381;28;20377;-44
2021/07/26 02:00:20;;;;;;;5.63;5.10;;;19.80;99.90;;;;;;5020753;28;20417;-44
2021/07/26 02:02:49;;;;;;;6.10;4.85;;;19.80;99.90;;;;;;5031417;28;20091;-42
2021/07/26 02:05:14;;;;;;;6.05;5.00;;;19.70;99.90;;;;;;5018857;28;20053;-45
2021/07/26 02:07:40;;;;;;;7.85;5.55;;;19.70;99.90;;;;;;5031308;28;20022;-42
2021/07/26 02:10:06;;;;;;;5.85;5.25;;;19.70;99.90;;;;;;5019489;28;20026;-43
2021/07/26 02:12:31;;;;;;;7.65;5.22;;;19.70;99.90;;;;;;5031328;28;20033;-44
2021/07/26 02:14:59;;;;;;;6.88;5.38;;;19.70;99.90;;;;;;5020940;28;20520;-45
2021/07/26 02:17:25;;;;;;;6.25;5.00;;;19.70;99.90;;;;;;5029446;28;20037;-45
2021/07/26 02:19:50;;;;;;;6.72;5.30;;;19.70;99.90;;;;;;5022768;28;20018;-43
2021/07/26 02:22:16;;;;;;;6.65;4.88;;;19.60;99.90;;;;;;5012765;28;20109;-44
2021/07/26 02:24:41;;;;;;;6.35;5.63;;;19.70;99.90;;;;;;5016892;28;20026;-43
2021/07/26 02:27:07;;;;;;;6.53;4.75;;;19.70;99.90;;;;;;5018377;28;20160;-44
2021/07/26 02:29:33;;;;;;;6.03;5.43;;;19.70;99.90;;;;;;5013775;28;20022;-44
2021/07/26 02:31:58;;;;;;;7.75;5.07;;;19.70;99.90;;;;;;5020879;28;20050;-42
2021/07/26 02:34:24;;;;;;;5.68;4.75;;;19.60;99.90;;;;;;5012326;28;20022;-44
2021/07/26 02:36:49;;;;;;;5.18;4.53;;;19.70;99.90;;;;;;5022330;28;20041;-43
2021/07/26 02:39:15;;;;;;;5.72;5.15;;;19.60;99.90;;;;;;5012691;28;20022;-44
2021/07/26 02:41:43;;;;;;;6.20;5.30;;;19.60;99.90;;;;;;5022063;28;20441;-44
2021/07/26 02:44:09;;;;;;;6.53;5.50;;;19.60;99.90;;;;;;5011687;28;20469;-45
2021/07/26 02:46:35;;;;;;;6.32;5.28;;;19.60;99.90;;;;;;5022694;28;20024;-43
2021/07/26 02:49:00;;;;;;;6.00;5.13;;;19.60;99.90;;;;;;5011609;28;20057;-45
2021/07/26 02:51:26;;;;;;;5.65;5.13;;;19.60;99.90;;;;;;5023224;28;20045;-45
2021/07/26 02:53:51;;;;;;;5.63;4.90;;;19.60;99.90;;;;;;5011002;28;20022;-43
2021/07/26 02:56:17;;;;;;;5.63;5.07;;;19.60;99.90;;;;;;5021777;28;20036;-43
2021/07/26 02:58:42;;;;;;;5.40;4.88;;;19.60;99.90;;;;;;5012342;28;20072;-45
2021/07/26 03:01:10;;;;;;;6.88;5.18;;;19.60;99.90;;;;;;5018408;28;20477;-42
2021/07/26 03:03:35;;;;;;;6.25;4.55;;;19.50;99.90;;;;;;5014664;28;20462;-42
2021/07/26 03:06:01;;;;;;;7.80;4.68;;;19.50;99.90;;;;;;5014977;28;20091;-43
2021/07/26 03:08:30;;;;;;;4.93;4.53;;;19.50;99.90;;;;;;5017043;28;20109;-43
2021/07/26 03:11:03;;;;;;;5.60;5.00;;;19.50;99.90;;;;;;5014347;28;20421;-45
2021/07/26 03:13:29;;;;;;;5.65;5.00;;;19.50;99.90;;;;;;5017661;28;20113;-44
2021/07/26 03:15:54;;;;;;;6.75;5.32;;;19.50;99.90;;;;;;5012436;28;20109;-45
2021/07/26 03:18:20;;;;;;;9.02;7.13;;;19.50;99.90;;;;;;5021563;28;20477;-44
2021/07/26 03:20:51;;;;;;;7.22;6.38;;;19.50;99.90;;;;;;5011688;28;20435;-45
2021/07/26 03:23:17;;;;;;;6.78;6.05;;;19.50;99.90;;;;;;5020792;28;20068;-45
2021/07/26 03:25:43;;;;;;;6.18;5.57;;;19.50;99.90;;;;;;5011222;28;20490;-43
2021/07/26 03:28:09;;;;;;;7.13;5.10;;;19.50;99.90;;;;;;5021663;28;20494;-43
2021/07/26 03:30:34;;;;;;;6.20;5.57;;;19.50;99.90;;;;;;5009407;28;20486;-40
2021/07/26 03:33:00;;;;;;;5.95;5.38;;;19.50;99.90;;;;;;5023229;28;20028;-44
2021/07/26 03:35:26;;;;;;;7.22;5.38;;;19.40;99.90;;;;;;5009982;28;20494;-45
2021/07/26 03:37:52;;;;;;;5.82;5.22;;;19.50;99.90;;;;;;5022314;28;20068;-43
2021/07/26 03:40:19;;;;;;;5.97;5.20;;;19.50;99.90;;;;;;5010886;28;20013;-40
2021/07/26 03:42:47;;;;;;;5.15;4.65;;;19.40;99.90;;;;;;5018420;28;20056;-45
2021/07/26 03:45:14;;;;;;;5.43;4.93;;;19.40;99.90;;;;;;5013234;28;20026;-39
2021/07/26 03:47:41;;;;;;;5.18;4.40;;;19.40;99.90;;;;;;5016940;28;20075;-45
2021/07/26 03:50:11;;;;;;;5.50;4.93;;;19.40;99.90;;;;;;5014808;28;20053;-45
2021/07/26 03:52:56;;;;;;;6.35;5.53;;;19.30;99.90;;;;;;5015747;28;20056;-42
2021/07/26 03:55:26;;;;;;;5.68;5.18;;;19.30;99.90;;;;;;5013504;28;20359;-39
2021/07/26 03:57:53;;;;;;;7.03;5.10;;;19.30;99.90;;;;;;5016344;28;20025;-42
2021/07/26 04:00:24;;;;;;;6.13;5.47;;;19.30;99.90;;;;;;5015853;28;20485;-43
2021/07/26 04:02:57;;;;;;;5.40;4.90;;;19.30;99.90;;;;;;5013814;28;20060;-43
2021/07/26 04:05:34;;;;;;;5.78;4.88;;;19.30;99.90;;;;;;5015820;28;20046;-44
2021/07/26 04:08:11;;;;;;;5.10;4.60;;;19.30;99.90;;;;;;5014616;28;20029;-45
2021/07/26 04:10:40;;;;;;;5.50;4.95;;;19.30;99.90;;;;;;5015262;28;20041;-38
2021/07/26 04:13:06;;;;;;;5.50;5.00;;;19.30;99.90;;;;;;5013994;28;20026;-42
2021/07/26 04:15:32;;;;;;;6.05;4.55;;;19.30;99.90;;;;;;5017763;28;20041;-45
2021/07/26 04:18:03;;;;;;;7.47;5.03;;;19.20;99.90;;;;;;5010366;28;20024;-44
2021/07/26 04:20:28;;;;;;;6.40;4.55;;;19.30;99.90;;;;;;5018880;28;20076;-41
2021/07/26 04:22:55;;;;;;;7.68;4.90;;;19.20;99.90;;;;;;5026870;28;20014;-45
2021/07/26 04:25:22;;;;;;;4.97;4.38;;;19.30;99.90;;;;;;5017738;28;20051;-44
2021/07/26 04:27:47;;;;;;;5.20;4.70;;;19.20;99.90;;;;;;5027706;28;20021;-45
2021/07/26 04:30:13;;;;;;;6.22;5.10;;;19.30;99.90;;;;;;5017812;28;20049;-43
2021/07/26 04:32:46;;;;;;;6.82;4.55;;;19.30;99.90;;;;;;5028313;28;20072;-39
2021/07/26 04:35:16;;;;;;;5.43;4.90;;;19.30;99.90;;;;;;5016959;28;20027;-45
2021/07/26 04:37:42;;;;;;;6.05;4.93;;;19.20;99.90;;;;;;5028157;28;20108;-44
2021/07/26 04:40:09;;;;;;;5.90;4.32;;;19.20;99.90;;;;;;5016851;28;20093;-42
2021/07/26 04:42:39;;;;;;;4.82;4.43;;;19.20;99.90;;;;;;5028611;28;20064;-45
2021/07/26 04:45:06;;;;;;;4.75;4.30;;;19.20;99.90;;;;;;5016529;28;20941;-43
2021/07/26 04:47:32;;;;;;;6.47;4.72;;;19.20;99.90;;;;;;5028699;28;20026;-44
2021/07/26 04:49:58;;;;;;;5.63;4.53;;;19.20;99.90;;;;;;5019271;28;20029;-41
2021/07/26 04:52:23;;;;;;;5.78;4.40;;;19.20;99.90;;;;;;5025479;28;20048;-45
2021/07/26 04:54:48;;;;;;;5.88;4.65;;;19.20;99.90;;;;;;5022487;28;20022;-44
2021/07/26 04:57:14;;;;;;;4.78;4.28;;;19.30;99.90;;;;;;5023537;28;20022;-43
2021/07/26 04:59:40;;;;;;;6.55;4.82;;;19.40;99.90;;;;;;5023733;28;20377;-44
2021/07/26 05:02:05;;;;;;;5.25;4.10;;;19.40;99.90;;;;;;5021300;28;20017;-44
2021/07/26 05:04:31;;;;;;;5.85;4.40;;;19.40;99.90;;;;;;5026716;28;20049;-42
2021/07/26 05:07:04;;;;;;;5.07;4.57;;;19.50;99.90;;;;;;5017799;28;20069;-43
2021/07/26 05:09:29;;;;;;;;;;;19.50;99.90;;;;;;5027671;28;20113;-42
2021/07/26 05:12:04;;;;;;;4.82;4.28;;;19.50;99.90;;;;;;5018014;28;20516;-45
2021/07/26 05:14:31;;;;;;;5.15;4.00;;;19.50;99.90;;;;;;5026241;28;20029;-43
2021/07/26 05:16:57;;;;;;;5.28;4.68;;;19.50;99.90;;;;;;5016943;28;20041;-42
2021/07/26 05:19:23;;;;;;;5.93;4.35;;;19.50;99.90;;;;;;5028493;28;20128;-43
2021/07/26 05:21:49;;;;;;;4.40;3.60;;;19.50;99.90;;;;;;5021057;28;20021;-44
2021/07/26 05:24:14;;;;;;;4.97;3.92;;;19.50;99.90;;;;;;5029395;28;20026;-39
2021/07/26 05:26:40;;;;;;;6.57;4.00;;;19.50;99.90;;;;;;5015770;28;20445;-41
2021/07/26 05:29:05;;;;;;;4.70;4.30;;;19.40;99.90;;;;;;5030028;28;20022;-41
2021/07/26 05:31:31;;;;;;;5.22;4.22;;;19.40;99.90;;;;;;5021726;28;20037;-38
2021/07/26 05:33:56;;;;;;;6.32;4.35;;;19.40;99.90;;;;;;5030693;28;20471;-43
2021/07/26 05:36:24;;;;;;;6.07;3.95;;;19.40;99.90;;;;;;5023723;28;20489;-40
2021/07/26 05:38:52;;;;;;;4.72;3.97;;;19.40;99.90;;;;;;5029088;28;20072;-37
2021/07/26 05:41:18;;;;;;;5.10;4.28;;;19.50;99.90;;;;;;5025895;28;20018;-42
2021/07/26 05:43:45;;;;;;;4.75;4.05;;;19.50;99.90;;;;;;5025123;28;20075;-44
2021/07/26 05:46:10;;;;;;;4.53;4.13;;;19.50;99.90;;;;;;5028221;28;20465;-42
2021/07/26 05:48:36;;;;;;;4.10;3.70;;;19.50;99.90;;;;;;5022540;28;20022;-43
2021/07/26 05:51:03;;;;;;;4.70;3.67;;;19.60;99.90;;;;;;5029382;28;20033;-42
2021/07/26 05:53:29;;;;;;;4.68;3.97;;;19.50;99.90;;;;;;5009571;28;20047;-45
2021/07/26 05:55:54;;;;;;;7.05;4.28;;;19.60;99.90;;;;;;5030043;28;20526;-42
2021/07/26 05:58:20;;;;;;;4.55;3.97;;;19.50;99.90;;;;;;5020672;28;20018;-43
2021/07/26 06:00:56;;;;;;;5.30;4.25;;;19.60;99.90;;;;;;5032268;28;20020;-44
2021/07/26 06:03:22;;;;;;;5.80;3.72;;;19.60;99.90;;;;;;5019466;28;20018;-44
2021/07/26 06:05:50;;;;;;;4.88;4.32;;;19.60;99.90;;;;;;5031149;28;20473;-45
2021/07/26 06:08:15;;;;;;;4.50;4.10;;;19.60;99.90;;;;;;5018710;28;20104;-43
2021/07/26 06:10:41;;;;;;;5.35;4.30;;;19.60;99.90;;;;;;5029782;28;20083;-45
2021/07/26 06:13:07;;;;;;;5.72;4.85;;;19.70;99.90;;;;;;5018765;28;20025;-43
2021/07/26 06:15:35;;;;;;;6.18;4.70;;;19.70;99.90;;;;;;5032012;28;20076;-45
2021/07/26 06:18:00;;;;;;;6.40;4.82;;;19.70;99.90;;;;;;5020698;28;20026;-41
2021/07/26 06:20:32;;;;;;;4.95;4.28;;;19.70;99.90;;;;;;5028973;28;20120;-43
2021/07/26 06:23:00;;;;;;;10.98;5.70;;;19.70;99.90;;;;;;5021623;28;20006;-45
2021/07/26 06:25:26;;;;;;;5.20;4.70;;;19.80;99.90;;;;;;5014735;28;20047;-46
2021/07/26 06:27:54;;;;;;;6.40;5.80;;;19.80;99.90;;;;;;5017615;28;20030;-43
2021/07/26 06:30:20;;;;;;;8.50;5.32;;;19.80;99.90;;;;;;5017178;28;20022;-43
2021/07/26 06:32:45;;;;;;;5.47;4.97;;;19.80;99.90;;;;;;5014559;28;20288;-43
2021/07/26 06:35:11;;;;;;;7.03;5.70;;;19.90;99.90;;;;;;5019170;28;20034;-44
2021/07/26 06:37:37;;;;;;;8.27;5.60;;;19.80;99.90;;;;;;4998404;28;20037;-43
2021/07/26 06:40:08;;;;;;;7.30;4.72;;;19.90;99.90;;;;;;5018257;28;20052;-43
2021/07/26 06:42:33;;;;;;;5.45;4.13;;;19.90;99.90;;;;;;5029764;28;20022;-45
2021/07/26 06:44:59;;;;;;;8.80;4.65;;;20.00;99.90;;;;;;5016644;28;20536;-43
2021/07/26 06:47:24;;;;;;;5.57;4.72;;;20.00;99.90;;;;;;5016041;28;20027;-45
2021/07/26 06:49:50;;;;;;;6.25;4.43;;;20.00;99.90;;;;;;5021300;28;20026;-44
2021/07/26 06:52:15;;;;;;;5.78;5.20;;;20.10;99.90;;;;;;5010246;28;20112;-44
2021/07/26 06:54:41;;;;;;;7.93;6.25;;;20.20;99.90;;;;;;5021487;28;20389;-43
2021/07/26 06:57:10;;;;;;;5.75;5.20;;;20.30;99.90;;;;;;5010695;28;20539;-42
2021/07/26 06:59:35;;;;;;;6.78;5.22;;;20.40;99.90;;;;;;5019923;28;20533;-44
2021/07/26 07:02:01;;;;;;;5.90;5.28;;;20.60;99.90;;;;;;5011046;28;20129;-42
2021/07/26 07:04:26;;;;;;;5.40;4.32;;;20.80;99.90;;;;;;5018755;28;20017;-44
2021/07/26 07:06:52;;;;;;;6.18;4.80;;;20.80;99.90;;;;;;5012789;28;20085;-44
2021/07/26 07:09:20;;;;;;;5.68;4.70;;;20.80;99.90;;;;;;5015901;28;20022;-40
2021/07/26 07:11:46;;;;;;;5.68;5.13;;;20.90;99.90;;;;;;5015953;28;20046;-43
2021/07/26 07:14:16;;;;;;;5.13;4.70;;;20.90;99.90;;;;;;5009416;28;20025;-44
2021/07/26 07:16:44;;;;;;;4.70;4.30;;;21.00;99.90;;;;;;5016836;28;20026;-44
2021/07/26 07:19:11;;;;;;;5.32;4.45;;;21.10;99.90;;;;;;5001192;28;20113;-42
2021/07/26 07:21:36;;;;;;;5.93;4.80;;;21.20;99.90;;;;;;5018212;28;20390;-44
2021/07/26 07:24:03;;;;;;;7.18;5.63;;;21.40;99.90;;;;;;5003669;28;20028;-44
2021/07/26 07:26:31;;;;;;;8.63;5.60;;;21.40;99.90;;;;;;5010916;28;20018;-43
2021/07/26 07:28:56;;;;;;;5.43;4.85;;;21.50;99.90;;;;;;5004966;28;20057;-41
2021/07/26 07:31:23;;;;;;;6.90;5.57;;;21.60;99.90;;;;;;5017321;28;20612;-43
2021/07/26 07:33:58;;;;;;;5.50;4.90;;;21.70;99.90;;;;;;5015155;28;20029;-44
2021/07/26 07:36:25;;;;;;;5.10;4.60;;;21.80;99.90;;;;;;5014135;28;20029;-44
2021/07/26 07:38:51;;;;;;;5.50;5.00;;;21.90;99.90;;;;;;5029439;28;20040;-43
2021/07/26 07:41:17;;;;;;;5.40;4.65;;;22.00;99.90;;;;;;5016666;28;20485;-44
2021/07/26 07:43:44;;;;;;;5.45;4.95;;;22.00;99.90;;;;;;5029880;28;20477;-44
2021/07/26 07:46:10;;;;;;;6.57;5.85;;;22.10;99.90;;;;;;5016324;28;20042;-43
2021/07/26 07:48:35;;;;;;;5.05;4.55;;;22.10;99.90;;;;;;5027951;28;20036;-44
2021/07/26 07:51:02;;;;;;;4.70;4.30;;;22.10;99.90;;;;;;5018866;28;20040;-42
2021/07/26 07:53:28;;;;;;;5.82;4.82;;;22.10;99.90;;;;;;5026167;28;20040;-43
2021/07/26 07:55:53;;;;;;;4.72;4.32;;;22.10;99.90;;;;;;5021602;28;20018;-41
2021/07/26 07:58:20;;;;;;;6.20;5.60;;;22.20;99.90;;;;;;5022805;28;20088;-44
2021/07/26 08:00:58;;;;;;;5.18;4.68;;;22.20;99.90;;;;;;5023351;28;20010;-40
2021/07/26 08:03:26;;;;;;;6.35;5.00;;;22.20;99.90;;;;;;5022609;28;20033;-44
2021/07/26 08:05:52;;;;;;;5.43;4.93;;;22.20;99.90;;;;;;5024135;28;20034;-43
2021/07/26 08:08:18;;;;;;;5.63;4.80;;;22.10;99.90;;;;;;4998289;28;20018;-43
2021/07/26 08:10:44;;;;;;;5.65;4.70;;;22.00;99.90;;;;;;4996316;28;20429;-42
2021/07/26 08:13:10;;;;;;;4.68;4.18;;;22.00;99.90;;;;;;4998698;28;20017;-43
2021/07/26 08:15:36;;;;;;;4.82;4.32;;;22.00;99.90;;;;;;5007574;28;20029;-43
2021/07/26 08:18:02;;;;;;;5.13;4.63;;;22.00;99.90;;;;;;5018783;28;20530;-40
2021/07/26 08:20:28;;;;;;;4.93;4.43;;;22.00;99.90;;;;;;4998576;28;20482;-39
2021/07/26 08:22:54;;;;;;;5.75;3.97;;;22.00;99.90;;;;;;5020757;28;20022;-43
2021/07/26 08:25:19;;;;;;;5.00;4.03;;;22.00;99.90;;;;;;5008807;28;20030;-43
2021/07/26 08:27:54;;;;;;;4.63;4.13;;;22.00;99.90;;;;;;5021641;28;20024;-42
2021/07/26 08:30:28;;;;;;;5.07;3.83;;;22.10;99.90;;;;;;5008889;28;20034;-43
2021/07/26 08:32:54;;;;;;;5.97;4.15;;;22.20;99.90;;;;;;5021854;28;20044;-42
2021/07/26 08:35:20;;;;;;;4.40;3.90;;;22.30;99.90;;;;;;5009020;28;20087;-43
2021/07/26 08:37:46;;;;;;;3.97;3.58;;;22.40;99.90;;;;;;5019588;28;20021;-42
2021/07/26 08:40:13;;;;;;;3.67;3.38;;;22.50;99.90;;;;;;5011121;28;20014;-46
2021/07/26 08:42:39;;;;;;;3.80;3.50;;;22.60;99.90;;;;;;5016863;28;20048;-46
2021/07/26 08:45:06;;;;;;;5.75;3.97;;;22.70;99.90;;;;;;5012062;28;20064;-42
2021/07/26 08:47:34;;;;;;;3.60;3.30;;;22.80;99.90;;;;;;5014615;28;20369;-46
2021/07/26 08:50:04;;;;;;;4.65;3.60;;;22.90;99.90;;;;;;5014983;28;20030;-46
2021/07/26 08:52:33;;;;;;;4.57;4.18;;;22.90;99.90;;;;;;5013093;28;20025;-46
2021/07/26 08:55:00;;;;;;;5.72;3.70;;;23.00;99.90;;;;;;5016705;28;20458;-44
2021/07/26 08:57:26;;;;;;;3.63;3.33;;;23.00;99.90;;;;;;5011289;28;20034;-43
2021/07/26 08:59:53;;;;;;;5.00;3.45;;;23.10;99.90;;;;;;5018580;28;20024;-47
2021/07/26 09:02:18;;;;;;;4.30;3.90;;;23.10;99.90;;;;;;5010489;28;20014;-39
2021/07/26 09:04:44;;;;;;;4.65;4.10;;;23.10;99.90;;;;;;5024500;28;20022;-41
2021/07/26 09:07:09;;;;;;;4.15;3.75;;;23.10;99.90;;;;;;5013661;28;20612;-46
2021/07/26 09:09:48;;;;;;;4.05;3.67;;;23.10;99.90;;;;;;5024414;28;20022;-44
2021/07/26 09:12:31;;;;;;;3.75;3.45;;;23.20;99.90;;;;;;5012662;28;20445;-44
2021/07/26 09:14:58;;;;;;;4.53;3.47;;;23.30;99.90;;;;;;5022145;28;20048;-46
2021/07/26 09:17:24;;;;;;;4.78;4.10;;;23.30;99.90;;;;;;5013840;28;20092;-44
2021/07/26 09:19:57;;;;;;;3.95;3.58;;;23.40;99.90;;;;;;5024160;28;20442;-45
2021/07/26 09:22:37;;;;;;;4.63;3.70;;;23.50;99.90;;;;;;5023920;28;20147;-46
2021/07/26 09:25:20;;;;;;;4.90;4.40;;;23.60;99.90;;;;;;5020519;28;20033;-46
2021/07/26 09:27:54;;;;;;;;;;;23.60;99.70;;;;;;5032153;28;20044;-45
2021/07/26 09:30:20;;;;;;;4.38;3.40;;;23.60;99.80;;;;;;5020443;28;19921;-46
2021/07/26 09:32:46;;;;;;;4.07;3.30;;;23.60;99.90;;;;;;5008721;28;20096;-45
2021/07/26 09:35:11;;;;;;;4.00;3.60;;;23.60;99.90;;;;;;5024238;28;20055;-45
2021/07/26 09:37:37;;;;;;;3.35;2.95;;;23.60;99.90;;;;;;5011705;28;20030;-45
2021/07/26 09:40:27;;;;;;;4.07;3.67;;;23.60;99.90;;;;;;5024667;28;20039;-40
2021/07/26 09:42:53;;;;;;;3.97;3.53;;;23.50;99.90;;;;;;5011937;28;20102;-43
2021/07/26 09:45:24;;;;;;;3.05;2.85;;;23.60;99.90;;;;;;5022844;28;20026;-46
2021/07/26 09:48:06;;;;;;;3.97;3.67;;;23.70;99.90;;;;;;5011047;28;20030;-37
2021/07/26 09:50:36;;;;;;;4.70;4.03;;;23.90;99.70;;;;;;5023521;28;20037;-42
2021/07/26 09:53:09;;;;;;;3.75;3.30;;;24.10;99.30;;;;;;5011329;28;20030;-38
2021/07/26 09:55:35;;;;;;;3.10;2.90;;;24.10;99.10;;;;;;5023592;28;20026;-42
2021/07/26 09:58:02;;;;;;;2.72;2.53;;;24.10;99.10;;;;;;5012616;28;20018;-44
2021/07/26 10:00:28;;;;;;;2.95;2.65;;;24.10;99.20;;;;;;5022096;28;20087;-42
2021/07/26 10:02:55;;;;;;;2.70;2.50;;;24.00;99.00;;;;;;4995786;28;20116;-41
2021/07/26 10:05:27;;;;;;;3.40;2.42;;;24.10;99.00;;;;;;5020343;28;20492;-42
2021/07/26 10:07:53;;;;;;;2.13;2.00;;;24.00;98.80;;;;;;5013907;28;20450;-45
2021/07/26 10:10:20;;;;;;;2.42;2.22;;;23.90;98.90;;;;;;5017468;28;20029;-42
2021/07/26 10:12:48;;;;;;;2.00;1.80;;;24.00;99.00;;;;;;5017892;28;20060;-44
2021/07/26 10:15:14;;;;;;;2.25;2.05;;;24.10;99.00;;;;;;5015407;28;20018;-41
2021/07/26 10:17:40;;;;;;;7.60;3.42;;;24.10;98.80;;;;;;5019437;28;20084;-39
2021/07/26 10:20:07;;;;;;;8.75;3.80;;;24.30;98.80;;;;;;5014102;28;20068;-42
2021/07/26 10:22:34;;;;;;;4.60;2.80;;;24.40;98.60;;;;;;5018372;28;20018;-43
2021/07/26 10:25:15;;;;;;;3.20;2.75;;;24.60;98.50;;;;;;5012569;28;20029;-43
2021/07/26 10:27:42;;;;;;;2.97;2.00;;;24.70;98.20;;;;;;5010423;28;20461;-43
2021/07/26 10:30:08;;;;;;;2.00;1.90;;;24.90;98.00;;;;;;5029409;28;20017;-42
2021/07/26 10:32:39;;;;;;;2.28;1.77;;;24.90;97.70;;;;;;5020225;28;20017;-44
2021/07/26 10:35:15;;;;;;;2.42;2.03;;;24.90;97.20;;;;;;5030392;28;20021;-44
2021/07/26 10:37:40;;;;;;;2.00;1.90;;;25.00;96.80;;;;;;5019174;28;20164;-40
2021/07/26 10:40:27;;;;;;;2.08;1.90;;;25.00;96.40;;;;;;5010558;28;20480;-44
2021/07/26 10:42:54;;;;;;;2.50;2.30;;;25.00;96.40;;;;;;5022587;28;20025;-42
2021/07/26 10:45:32;;;;;;;3.42;2.33;;;25.00;96.40;;;;;;5011262;28;20030;-42
2021/07/26 10:48:19;;;;;;;3.10;2.35;;;25.00;96.30;;;;;;5019588;28;20024;-43
2021/07/26 10:50:46;;;;;;;2.03;1.92;;;25.10;96.00;;;;;;5011882;28;20072;-42
2021/07/26 10:53:32;;;;;;;2.45;2.20;;;25.10;96.00;;;;;;5022185;28;20018;-42
2021/07/26 10:56:11;;;;;;;1.92;1.83;;;25.00;96.00;;;;;;5011478;28;20487;-42
2021/07/26 10:58:41;;;;;;;2.35;2.13;;;25.00;96.20;;;;;;5021525;28;20029;-44
2021/07/26 11:01:26;;;;;;;1.85;1.75;;;25.00;96.20;;;;;;5012349;28;20030;-45
2021/07/26 11:03:56;;;;;;;2.22;2.08;;;25.00;96.10;;;;;;5009333;28;20544;-41
2021/07/26 11:09:32;;;;;;;2.05;1.85;;;24.90;95.50;;;;;;5009215;28;20069;-41
2021/07/26 11:11:58;;;;;;;1.75;1.60;;;25.00;95.50;;;;;;5027430;28;20038;-41
2021/07/26 11:14:24;;;;;;;1.77;1.50;;;25.10;95.40;;;;;;5020357;28;20021;-40
2021/07/26 11:17:11;;;;;;;1.60;1.50;;;25.20;95.10;;;;;;5029713;28;20599;-42
2021/07/26 11:19:41;;;;;;;2.25;1.77;;;25.20;94.90;;;;;;5010452;28;20394;-42
2021/07/26 11:22:27;;;;;;;1.50;1.17;;;25.30;94.50;;;;;;5022678;28;20482;-45
2021/07/26 11:25:03;;;;;;;1.98;1.55;;;25.40;94.60;;;;;;5019280;28;20030;-40
2021/07/26 11:27:32;;;;;;;2.58;1.58;;;25.50;94.50;;;;;;5011243;28;20034;-41
2021/07/26 11:29:58;;;;;;;4.35;1.95;;;25.40;94.30;;;;;;5018744;28;20381;-41
2021/07/26 11:32:28;;;;;;;1.80;1.70;;;25.30;93.90;;;;;;5010739;28;20030;-44
2021/07/26 11:34:55;;;;;;;1.77;1.67;;;25.20;93.80;;;;;;5008064;28;20022;-40
2021/07/26 11:37:29;;;;;;;1.67;1.55;;;25.20;93.90;;;;;;5028182;28;20496;-42
2021/07/26 11:39:59;;;;;;;1.55;1.42;;;25.30;94.00;;;;;;5018340;28;20096;-42
2021/07/26 11:42:33;;;;;;;2.00;1.60;;;25.40;94.00;;;;;;5027601;28;20060;-43
2021/07/26 11:45:01;;;;;;;1.60;1.50;;;25.40;93.70;;;;;;5019480;28;20023;-40
2021/07/26 11:47:40;;;;;;;1.55;1.45;;;25.40;93.80;;;;;;5028217;28;20022;-39
2021/07/26 11:50:10;;;;;;;1.40;1.30;;;25.30;93.90;;;;;;5018677;28;20028;-42
2021/07/26 11:52:37;;;;;;;1.73;1.63;;;25.30;94.20;;;;;;5010724;28;20026;-42
2021/07/26 11:55:15;;;;;;;2.45;1.38;;;25.30;94.10;;;;;;5021228;28;20076;-41
2021/07/26 11:58:03;;;;;;;1.80;1.70;;;25.30;94.00;;;;;;5009500;28;20037;-42
2021/07/26 12:00:34;;;;;;;2.75;2.00;;;25.30;93.80;;;;;;5020723;28;20040;-42
2021/07/26 12:03:00;;;;;;;3.45;1.95;;;25.30;93.80;;;;;;5010505;28;20029;-42
2021/07/26 12:05:30;;;;;;;2.15;1.95;;;25.30;93.80;;;;;;5020387;28;20508;-40
2021/07/26 12:07:58;;;;;;;2.55;2.00;;;25.40;93.90;;;;;;5009769;28;20049;-41
2021/07/26 12:10:34;;;;;;;3.40;1.80;;;25.50;93.60;;;;;;5021493;28;20026;-42
2021/07/26 12:13:10;;;;;;;3.03;1.60;;;25.50;93.50;;;;;;5010153;28;20849;-40
2021/07/26 12:15:37;;;;;;;1.83;1.70;;;25.50;93.30;;;;;;5015836;28;20028;-43
2021/07/26 12:18:03;;;;;;;2.35;1.77;;;25.40;93.50;;;;;;5029499;28;20067;-43
2021/07/26 12:20:29;;;;;;;3.60;1.92;;;25.40;93.30;;;;;;5016579;28;20100;-42
2021/07/26 12:22:55;;;;;;;2.55;1.85;;;25.50;93.10;;;;;;5015404;28;20033;-43
2021/07/26 12:25:23;;;;;;;2.28;1.90;;;25.40;93.10;;;;;;5020168;28;20376;-43
2021/07/26 12:27:58;;;;;;;3.78;2.20;;;25.50;93.40;;;;;;5010977;28;20025;-43
2021/07/26 12:30:36;;;;;;;2.92;2.17;;;25.50;93.80;;;;;;5017901;28;20416;-40
2021/07/26 12:33:03;;;;;;;2.20;2.00;;;25.70;94.00;;;;;;5010785;28;20113;-40
2021/07/26 12:35:29;;;;;;;2.10;1.90;;;25.80;94.00;;;;;;5017871;28;20071;-43
2021/07/26 12:38:22;;;;;;;2.30;2.10;;;25.90;93.90;;;;;;5011998;28;20380;-43
2021/07/26 12:40:49;;;;;;;;;;;26.10;93.40;;;;;;5019160;28;20057;-42
2021/07/26 12:43:25;;;;;;;2.22;2.03;;;26.10;93.10;;;;;;5010815;28;19911;-43
2021/07/26 12:45:58;;;;;;;3.75;2.28;;;26.10;93.10;;;;;;5018549;28;20029;-43
2021/07/26 12:48:24;;;;;;;3.05;2.47;;;26.00;92.90;;;;;;5010793;28;20425;-40
2021/07/26 12:50:51;;;;;;;3.35;2.53;;;26.00;93.10;;;;;;5016369;28;20029;-41
2021/07/26 12:53:17;;;;;;;2.33;2.13;;;26.10;92.80;;;;;;5013593;28;20053;-42
2021/07/26 12:55:44;;;;;;;2.75;2.08;;;26.10;92.60;;;;;;5014797;28;20116;-42
2021/07/26 12:58:11;;;;;;;2.28;2.08;;;26.10;92.80;;;;;;5015175;28;20025;-43